sensor_id;sensor_type;location;lat;lon;timestamp;P1;durP1;ratioP1;P2;durP2;ratioP2
32216;SDS011;67098;51.140;4.088;2023-08-12T00:01:25;10.48;;;4.55;;
32216;SDS011;67098;51.140;4.088;2023-08-12T00:03:51;11.95;;;4.07;;
32216;SDS011;67098;51.140;4.088;2023-08-12T00:06:17;11.50;;;3.65;;
32216;SDS011;67098;51.140;4.088;2023-08-12T00:08:43;11.18;;;4.85;;
32216;SDS011;67098;51.140;4.088;2023-08-12T00:11:09;13.35;;;4.82;;
32216;SDS011;67098;51.140;4.088;2023-08-12T00:13:35;8.38;;;4.35;;
32216;SDS011;67098;51.140;4.088;2023-08-12T00:16:01;11.60;;;5.15;;
32216;SDS011;67098;51.140;4.088;2023-08-12T00:18:27;9.95;;;4.97;;
32216;SDS011;67098;51.140;4.088;2023-08-12T00:20:53;14.52;;;4.88;;
32216;SDS011;67098;51.140;4.088;2023-08-12T00:23:20;12.25;;;5.20;;
32216;SDS011;67098;51.140;4.088;2023-08-12T00:25:46;14.05;;;5.25;;
32216;SDS011;67098;51.140;4.088;2023-08-12T00:28:11;12.40;;;6.20;;
32216;SDS011;67098;51.140;4.088;2023-08-12T00:30:38;13.88;;;5.28;;
32216;SDS011;67098;51.140;4.088;2023-08-12T00:33:03;14.32;;;5.70;;
32216;SDS011;67098;51.140;4.088;2023-08-12T00:35:29;10.60;;;5.35;;
32216;SDS011;67098;51.140;4.088;2023-08-12T00:37:55;15.48;;;5.28;;
32216;SDS011;67098;51.140;4.088;2023-08-12T00:40:20;12.77;;;4.97;;
32216;SDS011;67098;51.140;4.088;2023-08-12T00:42:46;12.95;;;5.50;;
32216;SDS011;67098;51.140;4.088;2023-08-12T00:45:12;13.02;;;5.28;;
32216;SDS011;67098;51.140;4.088;2023-08-12T00:47:38;16.65;;;5.82;;
32216;SDS011;67098;51.140;4.088;2023-08-12T00:50:08;15.18;;;5.70;;
32216;SDS011;67098;51.140;4.088;2023-08-12T00:52:37;17.50;;;6.13;;
32216;SDS011;67098;51.140;4.088;2023-08-12T00:55:03;16.40;;;6.25;;
32216;SDS011;67098;51.140;4.088;2023-08-12T00:57:29;16.80;;;5.50;;
32216;SDS011;67098;51.140;4.088;2023-08-12T00:59:55;14.68;;;5.40;;
32216;SDS011;67098;51.140;4.088;2023-08-12T01:02:22;13.70;;;5.75;;
32216;SDS011;67098;51.140;4.088;2023-08-12T01:04:48;16.70;;;6.40;;
32216;SDS011;67098;51.140;4.088;2023-08-12T01:07:13;14.10;;;5.78;;
32216;SDS011;67098;51.140;4.088;2023-08-12T01:09:39;17.10;;;5.88;;
32216;SDS011;67098;51.140;4.088;2023-08-12T01:14:51;16.05;;;6.10;;
32216;SDS011;67098;51.140;4.088;2023-08-12T01:17:20;14.85;;;5.22;;
32216;SDS011;67098;51.140;4.088;2023-08-12T01:19:46;13.02;;;5.10;;
32216;SDS011;67098;51.140;4.088;2023-08-12T01:22:13;9.82;;;5.47;;
32216;SDS011;67098;51.140;4.088;2023-08-12T01:24:44;13.73;;;5.63;;
32216;SDS011;67098;51.140;4.088;2023-08-12T01:27:11;10.32;;;4.72;;
32216;SDS011;67098;51.140;4.088;2023-08-12T01:29:38;13.35;;;5.38;;
32216;SDS011;67098;51.140;4.088;2023-08-12T01:32:57;13.15;;;5.60;;
32216;SDS011;67098;51.140;4.088;2023-08-12T01:37:34;12.77;;;5.53;;
32216;SDS011;67098;51.140;4.088;2023-08-12T01:40:01;16.55;;;5.10;;
32216;SDS011;67098;51.140;4.088;2023-08-12T01:42:30;15.00;;;5.45;;
32216;SDS011;67098;51.140;4.088;2023-08-12T01:44:58;15.98;;;5.95;;
32216;SDS011;67098;51.140;4.088;2023-08-12T01:47:25;10.85;;;6.03;;
32216;SDS011;67098;51.140;4.088;2023-08-12T01:49:52;13.23;;;5.00;;
32216;SDS011;67098;51.140;4.088;2023-08-12T01:52:18;18.92;;;5.78;;
32216;SDS011;67098;51.140;4.088;2023-08-12T01:54:44;16.15;;;5.53;;
32216;SDS011;67098;51.140;4.088;2023-08-12T01:57:10;15.77;;;5.32;;
32216;SDS011;67098;51.140;4.088;2023-08-12T01:59:36;8.30;;;4.75;;
32216;SDS011;67098;51.140;4.088;2023-08-12T02:02:02;10.38;;;4.93;;
32216;SDS011;67098;51.140;4.088;2023-08-12T02:04:29;11.65;;;4.90;;
32216;SDS011;67098;51.140;4.088;2023-08-12T02:06:55;19.55;;;6.07;;
32216;SDS011;67098;51.140;4.088;2023-08-12T02:09:21;13.27;;;5.10;;
32216;SDS011;67098;51.140;4.088;2023-08-12T02:11:47;11.30;;;4.72;;
32216;SDS011;67098;51.140;4.088;2023-08-12T02:14:14;9.85;;;5.20;;
32216;SDS011;67098;51.140;4.088;2023-08-12T02:16:40;15.70;;;5.18;;
32216;SDS011;67098;51.140;4.088;2023-08-12T02:19:06;9.98;;;5.15;;
32216;SDS011;67098;51.140;4.088;2023-08-12T02:21:31;21.92;;;5.47;;
32216;SDS011;67098;51.140;4.088;2023-08-12T02:23:57;8.90;;;5.20;;
32216;SDS011;67098;51.140;4.088;2023-08-12T02:26:23;13.52;;;5.20;;
32216;SDS011;67098;51.140;4.088;2023-08-12T02:28:49;13.00;;;5.50;;
32216;SDS011;67098;51.140;4.088;2023-08-12T02:31:15;11.50;;;5.40;;
32216;SDS011;67098;51.140;4.088;2023-08-12T02:33:41;12.13;;;5.45;;
32216;SDS011;67098;51.140;4.088;2023-08-12T02:36:07;16.23;;;5.03;;
32216;SDS011;67098;51.140;4.088;2023-08-12T02:38:33;11.90;;;5.28;;
32216;SDS011;67098;51.140;4.088;2023-08-12T02:40:59;10.65;;;5.22;;
32216;SDS011;67098;51.140;4.088;2023-08-12T02:43:25;15.43;;;5.82;;
32216;SDS011;67098;51.140;4.088;2023-08-12T02:45:51;14.38;;;6.05;;
32216;SDS011;67098;51.140;4.088;2023-08-12T02:48:17;12.68;;;5.45;;
32216;SDS011;67098;51.140;4.088;2023-08-12T02:50:43;14.60;;;5.80;;
32216;SDS011;67098;51.140;4.088;2023-08-12T02:53:09;10.82;;;5.00;;
32216;SDS011;67098;51.140;4.088;2023-08-12T02:55:35;13.38;;;5.68;;
32216;SDS011;67098;51.140;4.088;2023-08-12T02:58:02;19.52;;;7.13;;
32216;SDS011;67098;51.140;4.088;2023-08-12T03:00:29;15.85;;;7.20;;
32216;SDS011;67098;51.140;4.088;2023-08-12T03:02:55;16.23;;;7.18;;
32216;SDS011;67098;51.140;4.088;2023-08-12T03:05:21;13.38;;;6.80;;
32216;SDS011;67098;51.140;4.088;2023-08-12T03:07:48;13.13;;;6.10;;
32216;SDS011;67098;51.140;4.088;2023-08-12T03:10:14;15.07;;;7.25;;
32216;SDS011;67098;51.140;4.088;2023-08-12T03:12:40;12.35;;;6.40;;
32216;SDS011;67098;51.140;4.088;2023-08-12T03:15:06;15.85;;;6.78;;
32216;SDS011;67098;51.140;4.088;2023-08-12T03:17:34;11.95;;;6.13;;
32216;SDS011;67098;51.140;4.088;2023-08-12T03:20:00;12.10;;;6.10;;
32216;SDS011;67098;51.140;4.088;2023-08-12T03:22:28;14.90;;;6.25;;
32216;SDS011;67098;51.140;4.088;2023-08-12T03:24:54;12.35;;;6.78;;
32216;SDS011;67098;51.140;4.088;2023-08-12T03:27:20;12.48;;;6.60;;
32216;SDS011;67098;51.140;4.088;2023-08-12T03:29:46;15.80;;;6.15;;
32216;SDS011;67098;51.140;4.088;2023-08-12T03:32:12;14.93;;;6.25;;
32216;SDS011;67098;51.140;4.088;2023-08-12T03:34:38;10.85;;;6.18;;
32216;SDS011;67098;51.140;4.088;2023-08-12T03:37:04;11.32;;;6.50;;
32216;SDS011;67098;51.140;4.088;2023-08-12T03:39:30;10.43;;;6.13;;
32216;SDS011;67098;51.140;4.088;2023-08-12T03:41:56;10.00;;;6.57;;
32216;SDS011;67098;51.140;4.088;2023-08-12T03:44:22;12.52;;;6.72;;
32216;SDS011;67098;51.140;4.088;2023-08-12T03:46:47;11.43;;;6.57;;
32216;SDS011;67098;51.140;4.088;2023-08-12T03:49:13;15.63;;;6.68;;
32216;SDS011;67098;51.140;4.088;2023-08-12T03:51:39;15.93;;;6.32;;
32216;SDS011;67098;51.140;4.088;2023-08-12T03:54:05;9.93;;;5.88;;
32216;SDS011;67098;51.140;4.088;2023-08-12T03:56:31;12.43;;;6.22;;
32216;SDS011;67098;51.140;4.088;2023-08-12T03:58:56;12.57;;;6.78;;
32216;SDS011;67098;51.140;4.088;2023-08-12T04:01:22;15.13;;;6.22;;
32216;SDS011;67098;51.140;4.088;2023-08-12T04:03:49;14.73;;;6.03;;
32216;SDS011;67098;51.140;4.088;2023-08-12T04:06:15;11.23;;;5.70;;
32216;SDS011;67098;51.140;4.088;2023-08-12T04:08:41;13.10;;;5.50;;
32216;SDS011;67098;51.140;4.088;2023-08-12T04:11:06;9.13;;;5.22;;
32216;SDS011;67098;51.140;4.088;2023-08-12T04:13:32;10.30;;;5.40;;
32216;SDS011;67098;51.140;4.088;2023-08-12T04:15:58;9.27;;;4.97;;
32216;SDS011;67098;51.140;4.088;2023-08-12T04:18:24;10.00;;;4.90;;
32216;SDS011;67098;51.140;4.088;2023-08-12T04:20:50;12.00;;;6.03;;
32216;SDS011;67098;51.140;4.088;2023-08-12T04:23:17;10.68;;;5.30;;
32216;SDS011;67098;51.140;4.088;2023-08-12T04:25:44;11.88;;;5.65;;
32216;SDS011;67098;51.140;4.088;2023-08-12T04:28:11;8.77;;;5.35;;
32216;SDS011;67098;51.140;4.088;2023-08-12T04:30:44;8.05;;;5.60;;
32216;SDS011;67098;51.140;4.088;2023-08-12T04:33:12;9.25;;;5.40;;
32216;SDS011;67098;51.140;4.088;2023-08-12T04:35:39;8.55;;;5.57;;
32216;SDS011;67098;51.140;4.088;2023-08-12T04:38:05;10.05;;;5.60;;
32216;SDS011;67098;51.140;4.088;2023-08-12T04:40:32;10.85;;;5.10;;
32216;SDS011;67098;51.140;4.088;2023-08-12T04:42:58;9.48;;;4.97;;
32216;SDS011;67098;51.140;4.088;2023-08-12T04:45:24;9.75;;;5.65;;
32216;SDS011;67098;51.140;4.088;2023-08-12T04:47:50;11.60;;;5.47;;
32216;SDS011;67098;51.140;4.088;2023-08-12T04:50:16;8.80;;;4.68;;
32216;SDS011;67098;51.140;4.088;2023-08-12T04:52:43;7.88;;;5.20;;
32216;SDS011;67098;51.140;4.088;2023-08-12T04:55:09;10.65;;;5.20;;
32216;SDS011;67098;51.140;4.088;2023-08-12T04:57:36;9.70;;;4.93;;
32216;SDS011;67098;51.140;4.088;2023-08-12T05:00:02;7.90;;;4.55;;
32216;SDS011;67098;51.140;4.088;2023-08-12T05:02:28;6.68;;;4.65;;
32216;SDS011;67098;51.140;4.088;2023-08-12T05:04:54;7.07;;;4.65;;
32216;SDS011;67098;51.140;4.088;2023-08-12T05:07:20;8.50;;;4.07;;
32216;SDS011;67098;51.140;4.088;2023-08-12T05:09:45;6.18;;;4.03;;
32216;SDS011;67098;51.140;4.088;2023-08-12T05:12:11;4.53;;;3.30;;
32216;SDS011;67098;51.140;4.088;2023-08-12T05:14:38;6.20;;;3.35;;
32216;SDS011;67098;51.140;4.088;2023-08-12T05:17:05;6.22;;;3.17;;
32216;SDS011;67098;51.140;4.088;2023-08-12T05:19:31;4.78;;;3.13;;
32216;SDS011;67098;51.140;4.088;2023-08-12T05:21:57;7.22;;;3.08;;
32216;SDS011;67098;51.140;4.088;2023-08-12T05:24:23;9.48;;;3.20;;
32216;SDS011;67098;51.140;4.088;2023-08-12T05:26:49;3.35;;;2.95;;
32216;SDS011;67098;51.140;4.088;2023-08-12T05:29:15;4.43;;;2.63;;
32216;SDS011;67098;51.140;4.088;2023-08-12T05:31:40;4.15;;;2.72;;
32216;SDS011;67098;51.140;4.088;2023-08-12T05:34:06;4.68;;;2.30;;
32216;SDS011;67098;51.140;4.088;2023-08-12T05:36:32;7.47;;;2.50;;
32216;SDS011;67098;51.140;4.088;2023-08-12T05:38:58;3.67;;;2.50;;
32216;SDS011;67098;51.140;4.088;2023-08-12T05:41:24;3.92;;;2.20;;
32216;SDS011;67098;51.140;4.088;2023-08-12T05:43:50;5.43;;;2.30;;
32216;SDS011;67098;51.140;4.088;2023-08-12T05:46:16;3.90;;;2.08;;
32216;SDS011;67098;51.140;4.088;2023-08-12T05:48:42;2.65;;;2.08;;
32216;SDS011;67098;51.140;4.088;2023-08-12T05:51:07;5.38;;;2.00;;
32216;SDS011;67098;51.140;4.088;2023-08-12T05:53:33;4.65;;;2.08;;
32216;SDS011;67098;51.140;4.088;2023-08-12T05:55:59;3.05;;;1.77;;
32216;SDS011;67098;51.140;4.088;2023-08-12T05:58:25;2.42;;;1.50;;
32216;SDS011;67098;51.140;4.088;2023-08-12T06:00:51;2.28;;;1.50;;
32216;SDS011;67098;51.140;4.088;2023-08-12T06:03:17;2.08;;;1.30;;
32216;SDS011;67098;51.140;4.088;2023-08-12T06:05:44;3.38;;;1.10;;
32216;SDS011;67098;51.140;4.088;2023-08-12T06:08:11;1.90;;;1.30;;
32216;SDS011;67098;51.140;4.088;2023-08-12T06:10:37;2.05;;;1.50;;
32216;SDS011;67098;51.140;4.088;2023-08-12T06:13:03;2.47;;;1.55;;
32216;SDS011;67098;51.140;4.088;2023-08-12T06:15:29;2.60;;;1.52;;
32216;SDS011;67098;51.140;4.088;2023-08-12T06:17:55;1.13;;;1.05;;
32216;SDS011;67098;51.140;4.088;2023-08-12T06:20:22;1.20;;;1.10;;
32216;SDS011;67098;51.140;4.088;2023-08-12T06:22:49;2.45;;;0.93;;
32216;SDS011;67098;51.140;4.088;2023-08-12T06:25:16;1.63;;;0.90;;
32216;SDS011;67098;51.140;4.088;2023-08-12T06:27:42;1.52;;;0.93;;
32216;SDS011;67098;51.140;4.088;2023-08-12T06:30:08;1.05;;;0.93;;
32216;SDS011;67098;51.140;4.088;2023-08-12T06:32:35;2.40;;;2.20;;
32216;SDS011;67098;51.140;4.088;2023-08-12T06:35:01;2.42;;;1.85;;
32216;SDS011;67098;51.140;4.088;2023-08-12T06:37:27;9.48;;;1.90;;
32216;SDS011;67098;51.140;4.088;2023-08-12T06:39:53;6.85;;;1.42;;
32216;SDS011;67098;51.140;4.088;2023-08-12T06:42:20;3.78;;;1.15;;
32216;SDS011;67098;51.140;4.088;2023-08-12T06:44:49;3.97;;;1.30;;
32216;SDS011;67098;51.140;4.088;2023-08-12T06:47:21;5.65;;;1.30;;
32216;SDS011;67098;51.140;4.088;2023-08-12T06:49:47;4.57;;;1.02;;
32216;SDS011;67098;51.140;4.088;2023-08-12T06:52:14;4.72;;;1.60;;
32216;SDS011;67098;51.140;4.088;2023-08-12T06:54:41;4.55;;;1.38;;
32216;SDS011;67098;51.140;4.088;2023-08-12T06:57:07;2.83;;;1.10;;
32216;SDS011;67098;51.140;4.088;2023-08-12T06:59:33;4.65;;;1.40;;
32216;SDS011;67098;51.140;4.088;2023-08-12T07:01:58;11.65;;;1.45;;
32216;SDS011;67098;51.140;4.088;2023-08-12T07:04:24;4.05;;;1.20;;
32216;SDS011;67098;51.140;4.088;2023-08-12T07:06:50;7.13;;;1.67;;
32216;SDS011;67098;51.140;4.088;2023-08-12T07:09:16;6.13;;;1.20;;
32216;SDS011;67098;51.140;4.088;2023-08-12T07:11:43;6.90;;;1.92;;
32216;SDS011;67098;51.140;4.088;2023-08-12T07:14:08;10.32;;;2.63;;
32216;SDS011;67098;51.140;4.088;2023-08-12T07:16:34;4.18;;;1.65;;
32216;SDS011;67098;51.140;4.088;2023-08-12T07:19:00;8.82;;;1.70;;
32216;SDS011;67098;51.140;4.088;2023-08-12T07:21:26;7.45;;;2.00;;
32216;SDS011;67098;51.140;4.088;2023-08-12T07:23:52;6.32;;;2.15;;
32216;SDS011;67098;51.140;4.088;2023-08-12T07:26:17;6.03;;;2.00;;
32216;SDS011;67098;51.140;4.088;2023-08-12T07:28:43;13.82;;;2.25;;
32216;SDS011;67098;51.140;4.088;2023-08-12T07:31:09;8.77;;;2.00;;
32216;SDS011;67098;51.140;4.088;2023-08-12T07:33:35;6.38;;;1.90;;
32216;SDS011;67098;51.140;4.088;2023-08-12T07:36:01;8.13;;;2.40;;
32216;SDS011;67098;51.140;4.088;2023-08-12T07:38:27;4.90;;;1.40;;
32216;SDS011;67098;51.140;4.088;2023-08-12T07:40:53;3.53;;;1.20;;
32216;SDS011;67098;51.140;4.088;2023-08-12T07:43:19;8.55;;;1.70;;
32216;SDS011;67098;51.140;4.088;2023-08-12T07:45:45;4.78;;;1.20;;
32216;SDS011;67098;51.140;4.088;2023-08-12T07:48:15;9.27;;;1.98;;
32216;SDS011;67098;51.140;4.088;2023-08-12T07:50:41;8.30;;;1.80;;
32216;SDS011;67098;51.140;4.088;2023-08-12T07:53:08;13.15;;;6.07;;
32216;SDS011;67098;51.140;4.088;2023-08-12T07:55:34;16.80;;;7.28;;
32216;SDS011;67098;51.140;4.088;2023-08-12T07:58:00;16.50;;;8.07;;
32216;SDS011;67098;51.140;4.088;2023-08-12T08:00:25;14.13;;;8.30;;
32216;SDS011;67098;51.140;4.088;2023-08-12T08:02:51;17.55;;;9.85;;
32216;SDS011;67098;51.140;4.088;2023-08-12T08:05:17;16.48;;;8.88;;
32216;SDS011;67098;51.140;4.088;2023-08-12T08:07:43;17.58;;;8.25;;
32216;SDS011;67098;51.140;4.088;2023-08-12T08:10:09;12.15;;;6.57;;
32216;SDS011;67098;51.140;4.088;2023-08-12T08:12:35;11.35;;;5.20;;
32216;SDS011;67098;51.140;4.088;2023-08-12T08:15:01;10.75;;;4.25;;
32216;SDS011;67098;51.140;4.088;2023-08-12T08:17:28;8.23;;;3.83;;
32216;SDS011;67098;51.140;4.088;2023-08-12T08:19:54;8.90;;;3.25;;
32216;SDS011;67098;51.140;4.088;2023-08-12T08:22:20;10.52;;;3.08;;
32216;SDS011;67098;51.140;4.088;2023-08-12T08:24:45;11.05;;;2.85;;
32216;SDS011;67098;51.140;4.088;2023-08-12T08:27:11;6.85;;;2.35;;
32216;SDS011;67098;51.140;4.088;2023-08-12T08:29:38;8.70;;;2.42;;
32216;SDS011;67098;51.140;4.088;2023-08-12T08:32:04;8.35;;;2.88;;
32216;SDS011;67098;51.140;4.088;2023-08-12T08:34:30;8.75;;;2.90;;
32216;SDS011;67098;51.140;4.088;2023-08-12T08:36:56;6.13;;;2.53;;
32216;SDS011;67098;51.140;4.088;2023-08-12T08:39:21;7.95;;;2.70;;
32216;SDS011;67098;51.140;4.088;2023-08-12T08:41:48;7.22;;;2.20;;
32216;SDS011;67098;51.140;4.088;2023-08-12T08:44:14;8.43;;;2.78;;
32216;SDS011;67098;51.140;4.088;2023-08-12T08:46:41;9.18;;;2.22;;
32216;SDS011;67098;51.140;4.088;2023-08-12T08:49:07;9.20;;;2.85;;
32216;SDS011;67098;51.140;4.088;2023-08-12T08:51:36;7.93;;;2.03;;
32216;SDS011;67098;51.140;4.088;2023-08-12T08:54:02;7.43;;;2.35;;
32216;SDS011;67098;51.140;4.088;2023-08-12T08:56:31;9.50;;;2.22;;
32216;SDS011;67098;51.140;4.088;2023-08-12T08:58:58;10.77;;;2.40;;
32216;SDS011;67098;51.140;4.088;2023-08-12T09:01:24;9.90;;;2.15;;
32216;SDS011;67098;51.140;4.088;2023-08-12T09:03:52;7.68;;;2.15;;
32216;SDS011;67098;51.140;4.088;2023-08-12T09:06:20;8.52;;;2.17;;
32216;SDS011;67098;51.140;4.088;2023-08-12T09:08:47;10.02;;;2.50;;
32216;SDS011;67098;51.140;4.088;2023-08-12T09:11:15;11.25;;;2.00;;
32216;SDS011;67098;51.140;4.088;2023-08-12T09:13:43;5.82;;;1.98;;
32216;SDS011;67098;51.140;4.088;2023-08-12T09:16:09;9.15;;;2.83;;
32216;SDS011;67098;51.140;4.088;2023-08-12T09:18:35;8.40;;;2.05;;
32216;SDS011;67098;51.140;4.088;2023-08-12T09:21:02;9.32;;;2.30;;
32216;SDS011;67098;51.140;4.088;2023-08-12T09:23:28;8.52;;;1.88;;
32216;SDS011;67098;51.140;4.088;2023-08-12T09:26:03;9.90;;;2.22;;
32216;SDS011;67098;51.140;4.088;2023-08-12T09:28:36;14.60;;;2.38;;
32216;SDS011;67098;51.140;4.088;2023-08-12T09:31:02;8.13;;;1.98;;
32216;SDS011;67098;51.140;4.088;2023-08-12T09:33:27;9.05;;;2.47;;
32216;SDS011;67098;51.140;4.088;2023-08-12T09:35:54;9.68;;;2.30;;
32216;SDS011;67098;51.140;4.088;2023-08-12T09:38:22;7.60;;;2.20;;
32216;SDS011;67098;51.140;4.088;2023-08-12T09:40:48;12.90;;;2.72;;
32216;SDS011;67098;51.140;4.088;2023-08-12T09:43:14;6.80;;;2.17;;
32216;SDS011;67098;51.140;4.088;2023-08-12T09:45:43;8.70;;;2.25;;
32216;SDS011;67098;51.140;4.088;2023-08-12T09:48:10;7.20;;;1.77;;
32216;SDS011;67098;51.140;4.088;2023-08-12T09:50:36;7.28;;;2.30;;
32216;SDS011;67098;51.140;4.088;2023-08-12T09:53:02;8.48;;;2.75;;
32216;SDS011;67098;51.140;4.088;2023-08-12T09:55:28;8.57;;;2.50;;
32216;SDS011;67098;51.140;4.088;2023-08-12T09:57:56;7.85;;;2.30;;
32216;SDS011;67098;51.140;4.088;2023-08-12T10:00:26;9.38;;;2.42;;
32216;SDS011;67098;51.140;4.088;2023-08-12T10:02:52;7.68;;;2.13;;
32216;SDS011;67098;51.140;4.088;2023-08-12T10:05:19;9.15;;;2.30;;
32216;SDS011;67098;51.140;4.088;2023-08-12T10:07:52;10.77;;;2.33;;
32216;SDS011;67098;51.140;4.088;2023-08-12T10:10:19;7.72;;;2.00;;
32216;SDS011;67098;51.140;4.088;2023-08-12T10:12:47;7.15;;;1.75;;
32216;SDS011;67098;51.140;4.088;2023-08-12T10:15:14;7.45;;;2.00;;
32216;SDS011;67098;51.140;4.088;2023-08-12T10:17:40;10.38;;;2.33;;
32216;SDS011;67098;51.140;4.088;2023-08-12T10:20:08;10.30;;;2.25;;
32216;SDS011;67098;51.140;4.088;2023-08-12T10:22:37;11.27;;;2.05;;
32216;SDS011;67098;51.140;4.088;2023-08-12T10:25:05;11.07;;;2.33;;
32216;SDS011;67098;51.140;4.088;2023-08-12T10:27:34;9.18;;;2.53;;
32216;SDS011;67098;51.140;4.088;2023-08-12T10:30:03;10.60;;;2.22;;
32216;SDS011;67098;51.140;4.088;2023-08-12T10:32:30;8.10;;;2.17;;
32216;SDS011;67098;51.140;4.088;2023-08-12T10:34:57;9.48;;;2.05;;
32216;SDS011;67098;51.140;4.088;2023-08-12T10:37:26;10.38;;;2.55;;
32216;SDS011;67098;51.140;4.088;2023-08-12T10:39:53;11.10;;;2.35;;
32216;SDS011;67098;51.140;4.088;2023-08-12T10:45:09;9.30;;;2.38;;
32216;SDS011;67098;51.140;4.088;2023-08-12T10:47:49;7.10;;;2.25;;
32216;SDS011;67098;51.140;4.088;2023-08-12T10:50:34;7.65;;;2.55;;
32216;SDS011;67098;51.140;4.088;2023-08-12T10:53:01;5.97;;;1.55;;
32216;SDS011;67098;51.140;4.088;2023-08-12T10:55:55;6.22;;;1.80;;
32216;SDS011;67098;51.140;4.088;2023-08-12T10:58:41;11.20;;;2.00;;
32216;SDS011;67098;51.140;4.088;2023-08-12T11:01:16;9.40;;;2.38;;
32216;SDS011;67098;51.140;4.088;2023-08-12T11:03:44;9.77;;;1.75;;
32216;SDS011;67098;51.140;4.088;2023-08-12T11:06:10;7.05;;;2.03;;
32216;SDS011;67098;51.140;4.088;2023-08-12T11:08:37;7.93;;;2.13;;
32216;SDS011;67098;51.140;4.088;2023-08-12T11:11:23;9.15;;;1.83;;
32216;SDS011;67098;51.140;4.088;2023-08-12T11:13:54;9.02;;;2.15;;
32216;SDS011;67098;51.140;4.088;2023-08-12T11:16:30;6.03;;;1.50;;
32216;SDS011;67098;51.140;4.088;2023-08-12T11:19:00;14.10;;;2.42;;
32216;SDS011;67098;51.140;4.088;2023-08-12T11:21:27;12.18;;;2.42;;
32216;SDS011;67098;51.140;4.088;2023-08-12T11:23:54;7.07;;;2.20;;
32216;SDS011;67098;51.140;4.088;2023-08-12T11:26:21;7.72;;;1.90;;
32216;SDS011;67098;51.140;4.088;2023-08-12T11:28:48;7.35;;;1.80;;
32216;SDS011;67098;51.140;4.088;2023-08-12T11:31:15;6.82;;;2.03;;
32216;SDS011;67098;51.140;4.088;2023-08-12T11:33:41;7.35;;;2.00;;
32216;SDS011;67098;51.140;4.088;2023-08-12T11:36:07;8.38;;;2.53;;
32216;SDS011;67098;51.140;4.088;2023-08-12T11:38:33;7.05;;;2.10;;
32216;SDS011;67098;51.140;4.088;2023-08-12T11:41:01;5.50;;;1.70;;
32216;SDS011;67098;51.140;4.088;2023-08-12T11:43:32;8.13;;;2.17;;
32216;SDS011;67098;51.140;4.088;2023-08-12T11:45:58;6.57;;;1.90;;
32216;SDS011;67098;51.140;4.088;2023-08-12T11:48:25;8.65;;;1.85;;
32216;SDS011;67098;51.140;4.088;2023-08-12T11:50:52;7.90;;;1.70;;
32216;SDS011;67098;51.140;4.088;2023-08-12T11:53:19;5.05;;;1.52;;
32216;SDS011;67098;51.140;4.088;2023-08-12T11:55:45;9.55;;;1.98;;
32216;SDS011;67098;51.140;4.088;2023-08-12T11:58:11;9.60;;;1.83;;
32216;SDS011;67098;51.140;4.088;2023-08-12T12:00:38;7.50;;;2.00;;
32216;SDS011;67098;51.140;4.088;2023-08-12T12:03:04;10.05;;;2.20;;
32216;SDS011;67098;51.140;4.088;2023-08-12T12:05:31;7.90;;;2.40;;
32216;SDS011;67098;51.140;4.088;2023-08-12T12:07:59;5.70;;;1.90;;
32216;SDS011;67098;51.140;4.088;2023-08-12T12:10:32;8.05;;;2.10;;
32216;SDS011;67098;51.140;4.088;2023-08-12T12:12:58;10.48;;;2.10;;
32216;SDS011;67098;51.140;4.088;2023-08-12T12:15:25;5.72;;;1.80;;
32216;SDS011;67098;51.140;4.088;2023-08-12T12:17:51;8.38;;;2.00;;
32216;SDS011;67098;51.140;4.088;2023-08-12T12:20:17;6.75;;;2.40;;
32216;SDS011;67098;51.140;4.088;2023-08-12T12:22:44;5.85;;;1.85;;
32216;SDS011;67098;51.140;4.088;2023-08-12T12:25:11;7.93;;;2.10;;
32216;SDS011;67098;51.140;4.088;2023-08-12T12:27:38;7.38;;;2.05;;
32216;SDS011;67098;51.140;4.088;2023-08-12T12:30:07;6.88;;;2.20;;
32216;SDS011;67098;51.140;4.088;2023-08-12T12:32:34;6.60;;;2.00;;
32216;SDS011;67098;51.140;4.088;2023-08-12T12:35:00;7.97;;;1.60;;
32216;SDS011;67098;51.140;4.088;2023-08-12T12:37:26;5.90;;;1.65;;
32216;SDS011;67098;51.140;4.088;2023-08-12T12:39:52;7.88;;;2.22;;
32216;SDS011;67098;51.140;4.088;2023-08-12T12:42:18;9.25;;;1.98;;
32216;SDS011;67098;51.140;4.088;2023-08-12T12:44:44;9.43;;;1.75;;
32216;SDS011;67098;51.140;4.088;2023-08-12T12:47:10;5.68;;;1.70;;
32216;SDS011;67098;51.140;4.088;2023-08-12T12:49:37;8.70;;;1.60;;
32216;SDS011;67098;51.140;4.088;2023-08-12T12:52:04;5.65;;;2.10;;
32216;SDS011;67098;51.140;4.088;2023-08-12T12:54:30;6.68;;;1.77;;
32216;SDS011;67098;51.140;4.088;2023-08-12T12:56:56;6.72;;;1.88;;
32216;SDS011;67098;51.140;4.088;2023-08-12T12:59:22;7.65;;;1.88;;
32216;SDS011;67098;51.140;4.088;2023-08-12T13:01:48;8.10;;;1.88;;
32216;SDS011;67098;51.140;4.088;2023-08-12T13:04:14;7.45;;;1.67;;
32216;SDS011;67098;51.140;4.088;2023-08-12T13:06:40;5.53;;;1.73;;
32216;SDS011;67098;51.140;4.088;2023-08-12T13:09:05;5.78;;;1.80;;
32216;SDS011;67098;51.140;4.088;2023-08-12T13:11:32;6.38;;;1.50;;
32216;SDS011;67098;51.140;4.088;2023-08-12T13:14:01;6.78;;;1.88;;
32216;SDS011;67098;51.140;4.088;2023-08-12T13:16:27;8.02;;;1.98;;
32216;SDS011;67098;51.140;4.088;2023-08-12T13:18:53;7.57;;;2.38;;
32216;SDS011;67098;51.140;4.088;2023-08-12T13:21:19;5.65;;;1.80;;
32216;SDS011;67098;51.140;4.088;2023-08-12T13:23:45;8.18;;;1.73;;
32216;SDS011;67098;51.140;4.088;2023-08-12T13:26:10;8.32;;;1.85;;
32216;SDS011;67098;51.140;4.088;2023-08-12T13:28:36;7.65;;;1.88;;
32216;SDS011;67098;51.140;4.088;2023-08-12T13:31:02;7.00;;;1.85;;
32216;SDS011;67098;51.140;4.088;2023-08-12T13:33:28;8.63;;;2.00;;
32216;SDS011;67098;51.140;4.088;2023-08-12T13:35:53;8.40;;;2.05;;
32216;SDS011;67098;51.140;4.088;2023-08-12T13:38:19;9.40;;;1.80;;
32216;SDS011;67098;51.140;4.088;2023-08-12T13:40:45;10.38;;;2.45;;
32216;SDS011;67098;51.140;4.088;2023-08-12T13:43:11;9.65;;;2.00;;
32216;SDS011;67098;51.140;4.088;2023-08-12T13:45:37;6.82;;;1.77;;
32216;SDS011;67098;51.140;4.088;2023-08-12T13:48:03;8.32;;;1.88;;
32216;SDS011;67098;51.140;4.088;2023-08-12T13:50:29;6.32;;;2.35;;
32216;SDS011;67098;51.140;4.088;2023-08-12T13:52:57;8.85;;;1.98;;
32216;SDS011;67098;51.140;4.088;2023-08-12T13:55:24;9.25;;;2.22;;
32216;SDS011;67098;51.140;4.088;2023-08-12T13:57:50;9.20;;;2.10;;
32216;SDS011;67098;51.140;4.088;2023-08-12T14:00:17;8.75;;;2.20;;
32216;SDS011;67098;51.140;4.088;2023-08-12T14:02:43;7.45;;;2.33;;
32216;SDS011;67098;51.140;4.088;2023-08-12T14:05:09;8.70;;;2.00;;
32216;SDS011;67098;51.140;4.088;2023-08-12T14:07:36;7.18;;;1.95;;
32216;SDS011;67098;51.140;4.088;2023-08-12T14:10:02;8.55;;;2.05;;
32216;SDS011;67098;51.140;4.088;2023-08-12T14:12:29;12.38;;;2.28;;
32216;SDS011;67098;51.140;4.088;2023-08-12T14:14:55;9.77;;;2.55;;
32216;SDS011;67098;51.140;4.088;2023-08-12T14:17:21;9.23;;;2.47;;
32216;SDS011;67098;51.140;4.088;2023-08-12T14:19:49;10.30;;;2.53;;
32216;SDS011;67098;51.140;4.088;2023-08-12T14:22:21;7.40;;;2.03;;
32216;SDS011;67098;51.140;4.088;2023-08-12T14:24:47;6.60;;;2.30;;
32216;SDS011;67098;51.140;4.088;2023-08-12T14:27:15;5.45;;;1.85;;
32216;SDS011;67098;51.140;4.088;2023-08-12T14:29:44;8.40;;;2.10;;
32216;SDS011;67098;51.140;4.088;2023-08-12T14:32:11;13.20;;;2.47;;
32216;SDS011;67098;51.140;4.088;2023-08-12T14:34:36;8.10;;;2.20;;
32216;SDS011;67098;51.140;4.088;2023-08-12T14:37:02;9.00;;;2.30;;
32216;SDS011;67098;51.140;4.088;2023-08-12T14:39:28;5.65;;;1.80;;
32216;SDS011;67098;51.140;4.088;2023-08-12T14:41:54;9.68;;;2.50;;
32216;SDS011;67098;51.140;4.088;2023-08-12T14:44:20;9.13;;;2.13;;
32216;SDS011;67098;51.140;4.088;2023-08-12T14:46:46;6.63;;;2.17;;
32216;SDS011;67098;51.140;4.088;2023-08-12T14:49:12;8.10;;;2.22;;